Time;durP1;ratioP1;P1;durP2;ratioP2;P2;SDS_P1;SDS_P2;PMS_P1;PMS_P2;Temp;Humidity;BMP_temperature;BMP_pressure;BME280_temperature;BME280_humidity;BME280_pressure;Samples;Min_cycle;Max_cycle;Signal;HPM_P1;HPM_P2
2021/05/28 00:00:45;;;;;;;22.98;11.80;;;10.00;99.90;;;;;;5014718;28;20107;-79
2021/05/28 00:03:12;;;;;;;18.75;12.07;;;10.00;99.90;;;;;;5014071;28;20148;-77
2021/05/28 00:05:40;;;;;;;24.63;12.13;;;10.00;99.90;;;;;;5014716;28;20133;-78
2021/05/28 00:08:07;;;;;;;20.02;11.57;;;9.90;99.90;;;;;;5015036;28;20460;-77
2021/05/28 00:10:33;;;;;;;20.83;13.13;;;10.00;99.90;;;;;;5014411;28;20133;-78
2021/05/28 00:12:59;;;;;;;18.83;11.35;;;9.90;99.90;;;;;;5014101;28;20127;-77
2021/05/28 00:15:26;;;;;;;16.65;11.68;;;10.00;99.90;;;;;;5014877;28;20053;-80
2021/05/28 00:17:52;;;;;;;18.02;12.63;;;10.00;99.90;;;;;;5015524;28;20133;-79
2021/05/28 00:20:20;;;;;;;19.42;11.80;;;9.90;99.90;;;;;;5014868;28;20141;-78
2021/05/28 00:22:46;;;;;;;19.63;12.63;;;9.90;99.90;;;;;;5013664;28;20042;-79
2021/05/28 00:25:13;;;;;;;19.20;12.23;;;9.90;99.90;;;;;;5014656;28;20525;-78
2021/05/28 00:27:42;;;;;;;21.45;12.23;;;9.90;99.90;;;;;;5013638;28;20082;-77
2021/05/28 00:30:09;;;;;;;20.45;12.18;;;9.80;99.90;;;;;;5014039;28;20050;-78
2021/05/28 00:32:35;;;;;;;23.60;12.65;;;9.80;99.90;;;;;;5013891;28;20502;-77
2021/05/28 00:35:02;;;;;;;25.23;12.82;;;9.80;99.90;;;;;;5015770;28;20082;-78
2021/05/28 00:37:29;;;;;;;20.67;13.45;;;9.80;99.90;;;;;;5014122;28;20132;-78
2021/05/28 00:39:56;;;;;;;20.23;12.40;;;9.80;99.90;;;;;;5016096;28;20057;-79
2021/05/28 00:42:22;;;;;;;17.95;12.18;;;9.80;99.90;;;;;;5017674;28;20126;-79
2021/05/28 00:44:48;;;;;;;23.55;13.20;;;9.80;99.90;;;;;;5016471;28;20140;-78
2021/05/28 00:47:15;;;;;;;20.08;12.13;;;9.80;99.90;;;;;;5017483;28;20141;-78
2021/05/28 00:49:41;;;;;;;21.73;13.13;;;9.80;99.90;;;;;;5018316;28;20050;-81
2021/05/28 00:52:07;;;;;;;21.13;12.90;;;9.80;99.90;;;;;;5016741;28;20133;-79
2021/05/28 00:54:35;;;;;;;20.67;13.88;;;9.80;99.90;;;;;;5015606;28;20173;-75
2021/05/28 00:57:01;;;;;;;19.55;12.65;;;9.90;99.90;;;;;;5015511;28;20133;-77
2021/05/28 00:59:28;;;;;;;22.70;13.32;;;9.90;99.90;;;;;;5015544;28;20053;-77
2021/05/28 01:01:55;;;;;;;22.00;13.10;;;9.90;99.90;;;;;;5016505;28;20536;-78
2021/05/28 01:04:21;;;;;;;21.88;13.35;;;10.00;99.90;;;;;;5016094;28;20410;-78
2021/05/28 01:06:47;;;;;;;30.67;13.80;;;10.00;99.90;;;;;;5015185;28;20572;-79
2021/05/28 01:09:14;;;;;;;19.08;12.98;;;10.00;99.90;;;;;;5013782;28;20162;-79
2021/05/28 01:11:41;;;;;;;20.92;13.23;;;9.90;99.90;;;;;;5013737;28;20053;-78
2021/05/28 01:14:08;;;;;;;21.05;14.93;;;10.00;99.90;;;;;;5013938;28;20085;-78
2021/05/28 01:16:34;;;;;;;19.38;12.85;;;9.90;99.90;;;;;;5015405;28;20046;-78
2021/05/28 01:19:00;;;;;;;20.65;13.80;;;9.90;99.90;;;;;;5015459;28;20145;-80
2021/05/28 01:21:28;;;;;;;22.13;14.07;;;10.00;99.90;;;;;;5016559;28;20128;-77
2021/05/28 01:23:57;;;;;;;22.80;14.13;;;10.00;99.90;;;;;;5014117;28;20077;-78
2021/05/28 01:26:23;;;;;;;22.48;14.63;;;10.00;99.90;;;;;;5013437;28;20053;-79
2021/05/28 01:28:50;;;;;;;19.67;14.07;;;10.00;99.90;;;;;;5013108;28;20128;-78
2021/05/28 01:31:16;;;;;;;24.08;14.77;;;10.00;99.90;;;;;;5012418;28;20052;-78
2021/05/28 01:33:44;;;;;;;20.55;13.73;;;10.00;99.90;;;;;;5012312;28;20097;-78
2021/05/28 01:36:11;;;;;;;21.10;14.25;;;9.90;99.90;;;;;;5012355;28;20136;-78
2021/05/28 01:38:38;;;;;;;23.92;14.82;;;9.90;99.90;;;;;;5013097;28;20108;-78
2021/05/28 01:41:06;;;;;;;24.00;15.00;;;9.90;99.90;;;;;;5014442;28;20053;-78
2021/05/28 01:43:33;;;;;;;24.88;13.90;;;9.90;99.90;;;;;;5014770;28;20121;-78
2021/05/28 01:46:00;;;;;;;23.38;14.45;;;9.90;99.90;;;;;;5015734;28;20053;-80
2021/05/28 01:48:26;;;;;;;22.98;14.35;;;9.90;99.90;;;;;;5013117;28;20109;-79
2021/05/28 01:50:53;;;;;;;24.25;14.63;;;9.90;99.90;;;;;;5012984;28;20149;-79
2021/05/28 01:53:21;;;;;;;20.45;14.50;;;9.80;99.90;;;;;;5013113;28;20141;-78
2021/05/28 01:55:49;;;;;;;21.23;14.75;;;9.70;99.90;;;;;;5013059;28;20132;-79
2021/05/28 01:58:18;;;;;;;18.25;14.70;;;9.70;99.90;;;;;;5013166;28;20085;-78
2021/05/28 02:00:46;;;;;;;26.58;15.18;;;9.70;99.90;;;;;;5015019;28;20546;-80
2021/05/28 02:03:13;;;;;;;21.33;14.27;;;9.70;99.90;;;;;;5017114;28;20124;-79
2021/05/28 02:05:39;;;;;;;22.55;14.40;;;9.60;99.90;;;;;;5017124;28;20228;-79
2021/05/28 02:08:08;;;;;;;31.95;15.80;;;9.60;99.90;;;;;;5016954;28;20081;-80
2021/05/28 02:10:34;;;;;;;26.02;17.02;;;9.60;99.90;;;;;;5017698;28;20521;-79
2021/05/28 02:13:01;;;;;;;26.40;17.02;;;9.60;99.90;;;;;;5016991;28;20046;-78
2021/05/28 02:15:29;;;;;;;26.45;15.75;;;9.60;99.90;;;;;;5017220;28;20132;-80
2021/05/28 02:17:55;;;;;;;27.30;15.38;;;9.60;99.90;;;;;;5017817;28;20132;-79
2021/05/28 02:20:23;;;;;;;23.35;16.77;;;9.50;99.90;;;;;;5064829;22;20046;-80
2021/05/28 02:22:50;;;;;;;23.83;15.82;;;9.50;99.90;;;;;;5048387;28;20106;-79
2021/05/28 02:25:17;;;;;;;27.08;15.88;;;9.40;99.90;;;;;;5047479;28;20049;-78
2021/05/28 02:27:44;;;;;;;28.40;16.35;;;9.40;99.90;;;;;;5048149;28;20050;-79
2021/05/28 02:30:12;;;;;;;29.70;18.25;;;9.30;99.90;;;;;;5045065;28;20095;-79
2021/05/28 02:32:39;;;;;;;28.45;17.17;;;9.30;99.90;;;;;;5039526;28;20148;-79
2021/05/28 02:35:09;;;;;;;29.85;17.33;;;9.30;99.90;;;;;;5038759;28;20132;-78
2021/05/28 02:37:35;;;;;;;28.52;18.08;;;9.20;99.90;;;;;;5039460;28;20045;-79
2021/05/28 02:40:02;;;;;;;26.98;17.70;;;9.20;99.90;;;;;;5039957;28;20140;-78
2021/05/28 02:42:29;;;;;;;31.70;18.10;;;9.20;99.90;;;;;;5038057;28;20114;-78
2021/05/28 02:44:55;;;;;;;27.73;17.17;;;9.10;99.90;;;;;;5037361;28;20049;-78
2021/05/28 02:47:21;;;;;;;25.13;17.55;;;9.10;99.90;;;;;;5037785;28;20095;-77
2021/05/28 02:49:49;;;;;;;26.30;18.33;;;9.10;99.90;;;;;;5036708;28;20059;-77
2021/05/28 02:52:16;;;;;;;29.17;18.35;;;9.10;99.90;;;;;;5037864;28;20132;-78
2021/05/28 02:54:42;;;;;;;30.63;19.42;;;9.00;99.90;;;;;;5037248;28;20080;-78
2021/05/28 02:57:09;;;;;;;28.20;18.55;;;9.00;99.90;;;;;;5040368;28;20129;-77
2021/05/28 02:59:35;;;;;;;32.88;18.60;;;9.00;99.90;;;;;;5042508;28;20131;-79
2021/05/28 03:02:02;;;;;;;27.60;19.10;;;8.90;99.90;;;;;;5039429;28;20136;-80
2021/05/28 03:04:28;;;;;;;26.92;18.98;;;8.90;99.90;;;;;;5038225;28;20061;-79
2021/05/28 03:06:55;;;;;;;29.10;18.95;;;8.90;99.90;;;;;;5038400;28;20056;-79
2021/05/28 03:09:22;;;;;;;27.67;18.92;;;8.90;99.90;;;;;;5039872;28;20136;-79
2021/05/28 03:11:48;;;;;;;31.02;20.30;;;8.90;99.90;;;;;;5038864;28;20118;-80
2021/05/28 03:14:14;;;;;;;26.70;19.73;;;8.90;99.90;;;;;;5039393;28;20170;-80
2021/05/28 03:16:41;;;;;;;34.90;20.75;;;8.90;99.90;;;;;;5038732;28;20099;-78
2021/05/28 03:19:14;;;;;;;29.77;20.20;;;8.90;99.90;;;;;;5038188;28;20536;-79
2021/05/28 03:24:22;;;;;;;34.50;21.02;;;8.80;99.90;;;;;;5037088;28;20050;-79
2021/05/28 03:26:49;;;;;;;32.25;21.20;;;8.80;99.90;;;;;;5037373;28;20132;-79
2021/05/28 03:29:15;;;;;;;31.40;20.58;;;8.80;99.90;;;;;;5037300;28;20136;-78
2021/05/28 03:31:41;;;;;;;32.78;22.45;;;8.80;99.90;;;;;;5037857;28;20049;-79
2021/05/28 03:34:08;;;;;;;38.67;23.92;;;8.80;99.90;;;;;;5037475;28;20087;-79
2021/05/28 03:36:34;;;;;;;35.20;22.23;;;8.80;99.90;;;;;;5038011;28;20055;-79
2021/05/28 03:39:01;;;;;;;36.78;22.42;;;8.70;99.90;;;;;;5039653;28;20073;-80
2021/05/28 03:41:28;;;;;;;33.45;22.48;;;8.70;99.90;;;;;;5042353;28;20100;-80
2021/05/28 03:43:54;;;;;;;29.23;19.67;;;8.70;99.90;;;;;;5040879;28;20109;-79
2021/05/28 03:46:21;;;;;;;25.60;17.92;;;8.70;99.90;;;;;;5037596;28;20105;-77
2021/05/28 03:48:47;;;;;;;33.92;17.85;;;8.60;99.90;;;;;;5036724;28;20634;-79
2021/05/28 03:51:13;;;;;;;25.30;16.65;;;8.60;99.90;;;;;;5041177;28;20092;-78
2021/05/28 03:53:40;;;;;;;29.40;17.52;;;8.60;99.90;;;;;;5038627;28;20498;-80
2021/05/28 03:56:06;;;;;;;22.88;17.00;;;8.60;99.90;;;;;;5037777;28;20139;-80
2021/05/28 03:58:34;;;;;;;24.88;18.52;;;8.60;99.90;;;;;;5038497;28;20132;-80
2021/05/28 04:01:00;;;;;;;24.42;17.05;;;8.70;99.90;;;;;;5037674;28;20521;-80
2021/05/28 04:03:26;;;;;;;21.52;15.45;;;8.80;99.90;;;;;;5038254;28;20489;-80
2021/05/28 04:05:53;;;;;;;24.05;15.32;;;9.10;99.90;;;;;;5037058;28;20513;-80
2021/05/28 04:08:19;;;;;;;21.98;13.63;;;9.30;99.90;;;;;;5039225;28;20113;-80
2021/05/28 04:10:47;;;;;;;18.33;13.23;;;9.60;99.90;;;;;;5040762;28;20596;-78
2021/05/28 04:13:13;;;;;;;14.93;11.73;;;9.90;99.90;;;;;;5039499;28;20045;-79
2021/05/28 04:15:41;;;;;;;18.88;13.02;;;10.20;99.90;;;;;;5041184;28;20471;-78
2021/05/28 04:18:08;;;;;;;14.02;11.98;;;10.40;99.90;;;;;;5044664;28;20053;-78
2021/05/28 04:20:35;;;;;;;22.90;12.38;;;10.60;99.90;;;;;;5043010;28;20045;-83
2021/05/28 04:23:02;;;;;;;17.20;13.10;;;10.70;99.90;;;;;;5038142;28;20066;-79
2021/05/28 04:25:29;;;;;;;17.73;12.93;;;10.80;99.90;;;;;;5040040;28;20109;-79
2021/05/28 04:27:55;;;;;;;18.83;13.60;;;11.00;99.90;;;;;;5040383;28;20473;-77
2021/05/28 04:30:24;;;;;;;16.67;12.13;;;11.30;99.90;;;;;;5035935;28;20573;-80
2021/05/28 04:32:51;;;;;;;17.83;12.95;;;11.50;99.90;;;;;;5034224;28;20045;-78
2021/05/28 04:35:18;;;;;;;19.17;12.70;;;11.60;99.90;;;;;;5035188;28;20057;-77
2021/05/28 04:37:44;;;;;;;21.80;13.40;;;11.60;99.90;;;;;;5037754;28;20136;-78
2021/05/28 04:40:11;;;;;;;20.25;13.63;;;11.70;99.90;;;;;;5039123;28;20132;-79
2021/05/28 04:42:38;;;;;;;18.90;14.35;;;11.80;99.90;;;;;;5040957;28;20580;-78
2021/05/28 04:45:05;;;;;;;21.85;14.77;;;11.70;99.90;;;;;;5043630;28;20089;-80
2021/05/28 04:47:32;;;;;;;26.05;14.95;;;11.80;99.90;;;;;;5049878;28;20067;-78
2021/05/28 04:50:00;;;;;;;21.38;15.30;;;11.80;99.90;;;;;;5048323;28;20049;-79
2021/05/28 04:52:26;;;;;;;19.60;15.82;;;11.80;99.90;;;;;;5049112;28;20498;-79
2021/05/28 04:54:52;;;;;;;19.70;14.55;;;11.90;99.90;;;;;;5048841;28;20061;-80
2021/05/28 04:57:19;;;;;;;19.95;15.95;;;11.90;99.90;;;;;;5049767;28;20045;-80
2021/05/28 04:59:45;;;;;;;21.23;15.93;;;12.10;99.90;;;;;;5049147;28;20084;-81
2021/05/28 05:02:12;;;;;;;19.35;15.77;;;12.30;99.90;;;;;;5046821;28;20069;-79
2021/05/28 05:04:38;;;;;;;24.70;17.33;;;12.50;99.90;;;;;;5043260;28;20084;-79
2021/05/28 05:07:05;;;;;;;22.25;17.13;;;12.60;99.90;;;;;;5039200;28;20081;-78
2021/05/28 05:09:32;;;;;;;24.70;17.63;;;12.70;99.90;;;;;;5045092;28;20504;-80
2021/05/28 05:11:58;;;;;;;26.02;18.38;;;12.60;99.90;;;;;;5047041;28;20084;-78
2021/05/28 05:14:24;;;;;;;21.77;16.98;;;12.60;99.90;;;;;;5045071;28;20089;-82
2021/05/28 05:16:51;;;;;;;19.17;16.20;;;13.00;99.90;;;;;;5032649;28;20477;-77
2021/05/28 05:19:17;;;;;;;17.58;14.52;;;13.60;99.90;;;;;;5033160;28;20532;-77
2021/05/28 05:21:43;;;;;;;16.13;14.45;;;14.30;99.90;;;;;;5032245;28;20195;-76
2021/05/28 05:24:11;;;;;;;20.63;13.85;;;14.90;99.90;;;;;;5031162;28;20160;-77
2021/05/28 05:26:38;;;;;;;16.90;13.40;;;15.90;99.90;;;;;;5036461;28;20580;-78
2021/05/28 05:29:04;;;;;;;18.67;14.25;;;16.70;99.90;;;;;;5040514;28;20502;-77
2021/05/28 05:31:31;;;;;;;16.65;13.73;;;17.40;99.90;;;;;;5035557;28;20049;-78
2021/05/28 05:33:58;;;;;;;22.60;14.70;;;17.90;99.90;;;;;;5038593;28;20077;-77
2021/05/28 05:36:25;;;;;;;16.55;13.82;;;18.30;99.90;;;;;;5038809;28;20079;-77
2021/05/28 05:38:52;;;;;;;18.17;13.95;;;18.80;99.90;;;;;;5041557;28;20049;-80
2021/05/28 05:41:19;;;;;;;18.88;14.18;;;19.10;99.90;;;;;;5041067;28;20184;-78
2021/05/28 05:43:45;;;;;;;17.05;13.85;;;19.40;99.90;;;;;;5038826;28;20132;-79
2021/05/28 05:46:12;;;;;;;17.90;14.45;;;19.50;99.90;;;;;;5040132;28;20049;-78
2021/05/28 05:48:39;;;;;;;17.00;13.80;;;19.70;99.90;;;;;;5040426;28;20050;-79
2021/05/28 05:51:06;;;;;;;19.85;13.52;;;20.10;99.90;;;;;;5042164;28;20450;-80
2021/05/28 05:53:32;;;;;;;16.48;14.38;;;20.20;99.90;;;;;;5043252;28;20053;-81
2021/05/28 05:55:58;;;;;;;23.50;15.35;;;19.90;99.90;;;;;;5043856;28;20128;-80
2021/05/28 05:58:25;;;;;;;21.60;15.23;;;19.60;99.90;;;;;;5046111;28;20077;-79
2021/05/28 06:00:52;;;;;;;21.92;13.75;;;18.30;99.90;;;;;;5046873;28;20050;-80
2021/05/28 06:03:18;;;;;;;20.67;14.95;;;18.10;99.90;;;;;;5042816;28;20132;-79
2021/05/28 06:05:45;;;;;;;22.70;15.35;;;18.50;99.90;;;;;;5037714;28;20137;-80
2021/05/28 06:08:11;;;;;;;20.73;16.30;;;18.40;99.90;;;;;;5040697;28;20077;-80
2021/05/28 06:13:22;;;;;;;22.50;17.77;;;17.00;99.90;;;;;;5039556;28;20551;-78
2021/05/28 06:16:00;;;;;;;22.15;18.15;;;16.50;99.90;;;;;;5038591;28;20045;-79
2021/05/28 06:18:30;;;;;;;22.65;17.52;;;16.80;99.90;;;;;;5040001;28;20058;-79
2021/05/28 06:20:57;;;;;;;21.50;15.48;;;17.10;99.90;;;;;;5040004;28;20132;-81
2021/05/28 06:23:23;;;;;;;21.95;15.98;;;17.50;99.90;;;;;;5040532;28;20045;-81
2021/05/28 06:25:53;;;;;;;23.45;16.75;;;18.20;99.90;;;;;;5040149;28;20057;-80
2021/05/28 06:28:21;;;;;;;19.45;16.27;;;18.40;99.90;;;;;;5039517;28;20045;-81
2021/05/28 06:30:48;;;;;;;26.23;18.80;;;18.80;99.90;;;;;;5040084;28;20104;-81
2021/05/28 06:36:12;;;;;;;19.23;16.48;;;18.60;99.90;;;;;;5039737;28;20054;-79
2021/05/28 06:38:44;;;;;;;22.40;16.60;;;19.50;99.90;;;;;;5038977;28;20108;-79
2021/05/28 06:41:10;;;;;;;23.35;16.63;;;20.00;99.90;;;;;;5037478;28;20056;-79
2021/05/28 06:43:37;;;;;;;25.70;16.75;;;20.70;99.90;;;;;;5037584;28;20049;-80
2021/05/28 06:46:03;;;;;;;20.35;16.90;;;21.10;99.90;;;;;;5038331;28;20049;-80
2021/05/28 06:48:37;;;;;;;22.83;16.45;;;21.40;99.90;;;;;;5041441;28;20049;-79
2021/05/28 06:51:06;;;;;;;23.35;16.92;;;21.80;99.90;;;;;;5042037;28;20060;-79
2021/05/28 06:53:50;;;;;;;20.45;15.90;;;22.20;99.90;;;;;;5040727;28;20056;-79
2021/05/28 06:56:22;;;;;;;23.98;17.40;;;22.50;99.90;;;;;;5041557;28;20049;-79
2021/05/28 06:58:53;;;;;;;23.88;18.00;;;22.30;99.90;;;;;;5040815;28;20057;-80
2021/05/28 07:01:24;;;;;;;22.15;18.35;;;22.30;99.90;;;;;;5041177;28;20107;-80
2021/05/28 07:03:52;;;;;;;20.40;16.45;;;22.50;99.90;;;;;;5041725;28;20045;-80
2021/05/28 07:06:28;;;;;;;21.42;17.23;;;22.50;99.90;;;;;;5041977;28;20053;-81
2021/05/28 07:09:06;;;;;;;22.17;16.58;;;22.70;99.90;;;;;;5046416;28;20149;-80
2021/05/28 07:11:33;;;;;;;20.40;16.20;;;22.60;99.90;;;;;;5043475;28;20552;-80
2021/05/28 07:14:00;;;;;;;20.73;16.70;;;22.50;99.90;;;;;;5041211;28;20052;-81
2021/05/28 07:16:28;;;;;;;21.83;16.27;;;22.60;99.90;;;;;;5042221;28;20049;-78
2021/05/28 07:18:56;;;;;;;21.73;16.90;;;23.20;99.90;;;;;;5042642;28;20113;-81
2021/05/28 07:21:24;;;;;;;21.52;16.10;;;23.20;99.90;;;;;;5043461;28;20053;-81
2021/05/28 07:23:59;;;;;;;23.92;17.27;;;23.30;99.90;;;;;;5042895;28;20046;-79
2021/05/28 07:26:28;;;;;;;21.35;16.42;;;22.60;99.90;;;;;;5044773;28;20520;-79
2021/05/28 07:28:59;;;;;;;20.30;15.25;;;21.90;99.90;;;;;;5048648;28;20049;-81
2021/05/28 07:31:34;;;;;;;20.50;14.52;;;21.20;99.90;;;;;;5042612;28;20544;-80
2021/05/28 07:34:05;;;;;;;18.70;14.80;;;20.60;99.90;;;;;;5041891;28;20084;-79
2021/05/28 07:36:31;;;;;;;19.63;14.35;;;20.10;99.90;;;;;;5046782;28;20060;-78
2021/05/28 07:38:58;;;;;;;20.65;16.15;;;19.60;99.90;;;;;;5047670;28;20081;-77
2021/05/28 07:41:25;;;;;;;21.95;16.20;;;19.10;99.90;;;;;;5046294;28;20046;-79
2021/05/28 07:43:51;;;;;;;20.92;15.48;;;18.90;99.90;;;;;;5038245;28;20091;-79
2021/05/28 07:46:17;;;;;;;20.02;15.65;;;18.60;99.90;;;;;;5038816;28;20093;-81
2021/05/28 07:48:44;;;;;;;18.95;14.23;;;18.70;99.90;;;;;;5040335;28;20053;-79
2021/05/28 07:51:11;;;;;;;17.58;14.88;;;19.00;99.90;;;;;;5038884;28;20056;-78
2021/05/28 07:53:38;;;;;;;21.02;14.65;;;19.30;99.90;;;;;;5038855;28;20049;-81
2021/05/28 07:56:05;;;;;;;22.98;15.68;;;19.50;99.90;;;;;;5038706;28;20077;-79
2021/05/28 07:58:32;;;;;;;22.33;14.93;;;19.60;99.90;;;;;;5037077;28;20073;-79
2021/05/28 08:00:59;;;;;;;21.95;14.82;;;19.60;99.90;;;;;;5039758;28;20076;-79
2021/05/28 08:03:25;;;;;;;18.33;14.32;;;19.70;99.90;;;;;;5040104;28;20045;-78
2021/05/28 08:05:52;;;;;;;20.52;13.80;;;19.60;99.90;;;;;;5036207;28;20537;-79
2021/05/28 08:08:19;;;;;;;19.13;13.25;;;19.90;99.90;;;;;;5037526;28;20498;-79
2021/05/28 08:10:46;;;;;;;17.33;13.63;;;19.80;99.90;;;;;;5038228;28;20060;-79
2021/05/28 08:13:12;;;;;;;20.30;13.48;;;19.80;99.90;;;;;;5036246;28;20424;-79
2021/05/28 08:15:39;;;;;;;17.55;13.02;;;19.40;99.90;;;;;;5037147;28;20049;-79
2021/05/28 08:18:06;;;;;;;18.58;13.05;;;19.60;99.90;;;;;;5039248;28;20096;-79
2021/05/28 09:05:06;;;;;;;14.43;11.98;;;20.80;99.90;;;;;;4945824;23;20120;-78
2021/05/28 09:07:33;;;;;;;16.33;12.40;;;21.10;99.90;;;;;;5052278;28;20079;-79
2021/05/28 09:10:00;;;;;;;14.77;11.45;;;21.40;99.90;;;;;;5053771;28;20053;-79
2021/05/28 09:12:27;;;;;;;14.00;11.20;;;21.60;99.90;;;;;;5053699;28;20398;-79
2021/05/28 09:14:54;;;;;;;9.95;7.43;;;22.10;99.90;;;;;;5054006;28;20131;-79
2021/05/28 09:17:21;;;;;;;9.88;7.38;;;22.20;99.90;;;;;;5053631;28;20135;-79
2021/05/28 09:19:56;;;;;;;9.45;8.00;;;22.30;99.90;;;;;;5054178;28;20101;-79
2021/05/28 09:22:33;;;;;;;14.60;9.38;;;21.80;99.90;;;;;;5054951;28;20151;-79
2021/05/28 09:25:00;;;;;;;12.18;8.30;;;21.50;99.90;;;;;;5052388;28;20140;-79
2021/05/28 09:27:28;;;;;;;18.58;14.32;;;20.60;99.90;;;;;;5054424;28;20108;-79
2021/05/28 09:29:59;;;;;;;19.15;14.52;;;20.30;99.90;;;;;;5053082;28;20057;-79
2021/05/28 09:32:26;;;;;;;19.38;13.75;;;19.80;99.90;;;;;;5053555;28;20131;-80
2021/05/28 09:34:57;;;;;;;18.00;13.25;;;19.50;99.90;;;;;;5052581;28;20518;-78
2021/05/28 09:37:40;;;;;;;19.50;13.90;;;19.30;99.90;;;;;;5052232;28;20048;-81
2021/05/28 09:40:13;;;;;;;17.80;12.80;;;19.00;99.90;;;;;;5051342;28;20051;-79
2021/05/28 09:42:49;;;;;;;;;;;18.80;99.90;;;;;;5052823;28;20057;-79
2021/05/28 09:45:30;;;;;;;14.52;10.88;;;19.00;99.90;;;;;;5052384;28;19960;-78
2021/05/28 09:47:58;;;;;;;10.93;8.20;;;19.50;99.90;;;;;;5052464;28;20053;-79
2021/05/28 09:50:25;;;;;;;9.60;6.80;;;19.80;99.90;;;;;;5051715;28;20057;-79
2021/05/28 09:52:52;;;;;;;15.25;10.68;;;19.80;99.90;;;;;;5052215;28;20390;-77
2021/05/28 09:55:25;;;;;;;11.75;8.70;;;18.80;99.90;;;;;;5052988;28;20086;-78
2021/05/28 09:57:53;;;;;;;12.23;9.13;;;18.60;99.90;;;;;;5052011;28;20060;-78
2021/05/28 10:00:24;;;;;;;11.82;8.40;;;18.80;99.90;;;;;;5051865;28;20499;-80
2021/05/28 10:03:08;;;;;;;12.05;8.35;;;19.10;99.90;;;;;;5052374;28;20045;-78
2021/05/28 10:05:37;;;;;;;13.27;8.70;;;19.30;99.90;;;;;;5052000;28;20381;-78
2021/05/28 10:08:05;;;;;;;12.77;8.88;;;19.30;99.90;;;;;;5051288;28;20052;-80
2021/05/28 10:10:32;;;;;;;11.30;8.27;;;19.20;99.90;;;;;;5051250;28;20076;-79
2021/05/28 10:13:00;;;;;;;10.82;8.20;;;19.20;99.90;;;;;;5051369;28;20180;-78
2021/05/28 10:15:26;;;;;;;11.65;8.55;;;19.40;99.90;;;;;;5052094;28;20174;-79
2021/05/28 10:18:11;;;;;;;11.98;8.82;;;19.60;99.90;;;;;;5053535;28;20052;-79
2021/05/28 10:20:39;;;;;;;12.23;8.63;;;19.90;99.90;;;;;;5054040;28;20056;-79
2021/05/28 10:23:07;;;;;;;18.35;8.85;;;19.90;99.90;;;;;;5056937;28;20041;-80
2021/05/28 10:25:35;;;;;;;11.40;8.15;;;19.60;99.90;;;;;;5056866;28;20139;-79
2021/05/28 10:28:03;;;;;;;15.13;9.38;;;19.60;99.90;;;;;;5056471;28;20059;-79
2021/05/28 10:30:37;;;;;;;10.93;8.02;;;19.70;99.90;;;;;;5058172;28;20132;-79
2021/05/28 10:33:38;;;;;;;14.40;10.10;;;19.80;99.90;;;;;;5057041;28;20052;-79
2021/05/28 10:36:13;;;;;;;12.25;8.23;;;20.10;99.90;;;;;;5057701;28;20059;-79
2021/05/28 10:42:12;;;;;;;10.60;7.20;;;20.20;99.90;;;;;;5048278;28;20056;-79
2021/05/28 10:44:41;;;;;;;8.82;7.35;;;19.80;99.90;;;;;;5054648;28;20053;-79
2021/05/28 10:47:22;;;;;;;11.93;7.50;;;19.90;99.90;;;;;;5055742;28;20152;-80
2021/05/28 10:49:50;;;;;;;8.15;6.88;;;19.80;99.90;;;;;;5056470;28;20132;-79
2021/05/28 10:52:31;;;;;;;10.20;7.55;;;19.70;99.90;;;;;;5057084;28;20151;-80
2021/05/28 10:55:01;;;;;;;8.02;6.40;;;19.60;99.90;;;;;;5053672;28;20072;-79
2021/05/28 10:57:43;;;;;;;10.25;7.25;;;19.60;99.90;;;;;;5054920;28;20045;-79
2021/05/28 11:00:20;;;;;;;16.42;9.65;;;19.20;99.90;;;;;;5056586;28;20369;-78
2021/05/28 11:03:08;;;;;;;11.85;8.50;;;19.10;99.90;;;;;;5056338;28;20041;-80
2021/05/28 11:05:52;;;;;;;10.68;8.85;;;19.20;99.90;;;;;;5056316;28;20053;-81
2021/05/28 11:08:43;;;;;;;13.13;9.15;;;19.40;99.90;;;;;;5055869;28;20049;-79
2021/05/28 11:11:54;;;;;;;11.30;8.88;;;19.60;99.90;;;;;;5056586;28;20509;-78
2021/05/28 11:14:21;;;;;;;13.88;8.80;;;19.80;99.90;;;;;;5060810;28;20317;-79
2021/05/28 11:17:07;;;;;;;9.05;7.70;;;19.80;99.90;;;;;;5063687;28;20083;-81
2021/05/28 11:19:35;;;;;;;9.52;7.88;;;19.70;99.90;;;;;;5065487;28;20048;-80
2021/05/28 11:22:03;;;;;;;11.52;7.90;;;19.50;99.90;;;;;;5057102;28;20132;-81
2021/05/28 11:24:44;;;;;;;11.85;7.55;;;19.60;99.90;;;;;;5056627;28;20560;-81
2021/05/28 11:27:14;;;;;;;13.90;7.88;;;20.00;99.90;;;;;;5057632;28;20088;-80
2021/05/28 11:29:42;;;;;;;10.60;6.53;;;20.20;99.90;;;;;;5058516;28;20076;-79
2021/05/28 11:32:30;;;;;;;10.73;6.32;;;20.20;99.90;;;;;;5056723;28;20495;-80
2021/05/28 11:35:11;;;;;;;9.55;6.80;;;20.10;99.90;;;;;;5056701;28;20048;-80
2021/05/28 11:37:38;;;;;;;9.70;6.70;;;19.80;99.90;;;;;;5057824;28;20135;-81
2021/05/28 11:40:12;;;;;;;11.75;8.05;;;19.80;99.90;;;;;;5057144;28;20186;-81
2021/05/28 11:42:40;;;;;;;8.75;7.00;;;19.60;99.90;;;;;;5055710;28;20045;-80
2021/05/28 11:45:10;;;;;;;7.85;6.50;;;19.70;99.90;;;;;;5056822;28;20140;-80
2021/05/28 11:47:37;;;;;;;12.93;8.65;;;20.10;99.90;;;;;;5058658;28;20087;-80
2021/05/28 11:50:08;;;;;;;9.52;7.57;;;20.40;99.90;;;;;;5058692;28;20132;-81
2021/05/28 11:52:35;;;;;;;10.70;8.00;;;20.40;99.90;;;;;;5058465;28;20080;-80
2021/05/28 11:55:09;;;;;;;12.57;7.80;;;20.00;99.90;;;;;;5057957;28;20089;-81
2021/05/28 11:57:36;;;;;;;10.30;7.82;;;19.90;99.90;;;;;;5059921;28;20102;-80
2021/05/28 12:00:08;;;;;;;10.98;7.25;;;19.40;99.90;;;;;;5060271;28;20103;-81
2021/05/28 12:02:44;;;;;;;13.15;9.82;;;19.60;99.90;;;;;;5061364;28;20056;-83
2021/05/28 12:05:39;;;;;;;11.38;9.23;;;19.30;99.90;;;;;;5061188;28;20098;-80
2021/05/28 12:08:18;;;;;;;16.27;9.95;;;19.30;99.90;;;;;;5073004;28;20080;-82
2021/05/28 12:10:46;;;;;;;13.82;8.85;;;19.30;99.90;;;;;;5075154;28;20041;-81
2021/05/28 12:13:14;;;;;;;15.57;9.60;;;19.20;99.90;;;;;;5072080;28;20048;-80
2021/05/28 12:15:43;;;;;;;12.18;9.00;;;19.10;99.90;;;;;;5059105;28;20048;-80
2021/05/28 12:18:18;;;;;;;13.43;9.63;;;19.10;99.90;;;;;;5057396;28;20044;-83
2021/05/28 12:20:46;;;;;;;13.32;9.00;;;19.30;99.90;;;;;;5058956;28;20116;-80
2021/05/28 12:23:15;;;;;;;12.68;8.90;;;19.40;99.90;;;;;;5058852;28;20512;-80
2021/05/28 12:25:45;;;;;;;11.70;8.63;;;19.40;99.90;;;;;;5058515;28;20118;-80
2021/05/28 12:28:18;;;;;;;14.70;8.43;;;19.70;99.90;;;;;;5058835;28;20123;-80
2021/05/28 12:30:48;;;;;;;11.35;8.10;;;19.70;99.90;;;;;;5058066;28;20093;-82
2021/05/28 12:33:17;;;;;;;13.93;7.90;;;19.70;99.90;;;;;;5057710;28;20045;-83
2021/05/28 12:35:49;;;;;;;11.95;7.78;;;19.50;99.90;;;;;;5058592;28;20045;-80
2021/05/28 12:38:16;;;;;;;9.20;6.75;;;19.50;99.90;;;;;;5058036;28;20052;-81
2021/05/28 12:40:46;;;;;;;12.45;6.78;;;19.60;99.90;;;;;;5057691;28;20524;-81
2021/05/28 12:43:18;;;;;;;9.90;6.10;;;19.60;99.90;;;;;;5055733;28;20053;-78
2021/05/28 12:45:46;;;;;;;12.03;6.27;;;19.60;99.90;;;;;;5054843;28;20541;-80
2021/05/28 12:48:12;;;;;;;8.77;6.55;;;19.50;99.90;;;;;;5056690;28;20138;-80
2021/05/28 12:50:42;;;;;;;8.13;6.18;;;19.30;99.90;;;;;;5056143;28;20114;-80
2021/05/28 12:53:14;;;;;;;9.43;6.25;;;19.20;99.90;;;;;;5055191;28;20172;-81
2021/05/28 12:55:42;;;;;;;8.27;6.05;;;19.50;99.90;;;;;;5055185;28;20088;-81
2021/05/28 12:58:23;;;;;;;8.20;5.90;;;19.90;99.90;;;;;;5056558;28;20135;-79
2021/05/28 13:00:56;;;;;;;10.98;7.40;;;20.20;99.90;;;;;;5055487;28;20088;-81
2021/05/28 13:03:49;;;;;;;10.38;7.97;;;20.20;99.90;;;;;;5057942;28;20147;-80
2021/05/28 13:06:41;;;;;;;11.35;8.25;;;19.70;99.90;;;;;;5041178;28;20052;-81
2021/05/28 13:09:15;;;;;;;13.07;8.13;;;19.50;99.90;;;;;;5041381;28;20052;-81
2021/05/28 13:11:50;;;;;;;12.82;8.60;;;19.50;99.90;;;;;;5056328;28;20107;-82
2021/05/28 13:14:22;;;;;;;11.63;8.60;;;19.40;99.90;;;;;;5055954;28;20079;-80
2021/05/28 13:16:49;;;;;;;13.00;9.00;;;19.50;99.90;;;;;;5056824;28;20346;-80
2021/05/28 13:19:16;;;;;;;11.82;7.13;;;19.90;99.90;;;;;;5057417;28;20237;-80
2021/05/28 13:21:54;;;;;;;9.63;7.10;;;19.90;99.90;;;;;;5056294;28;20128;-80
2021/05/28 13:24:38;;;;;;;9.57;7.60;;;20.10;99.90;;;;;;5056895;28;20045;-82
2021/05/28 13:27:13;;;;;;;10.88;7.15;;;20.30;99.90;;;;;;5057924;28;20095;-80
2021/05/28 13:29:54;;;;;;;10.60;6.82;;;20.10;99.90;;;;;;5056991;28;20049;-80
2021/05/28 13:32:24;;;;;;;10.65;7.55;;;19.80;99.90;;;;;;5056148;28;20060;-81
2021/05/28 13:34:51;;;;;;;12.90;7.10;;;19.90;99.90;;;;;;5056891;28;20049;-81
2021/05/28 13:37:17;;;;;;;10.63;7.35;;;19.80;99.90;;;;;;5056831;28;20519;-82
2021/05/28 13:39:44;;;;;;;10.15;7.65;;;20.20;99.90;;;;;;5056255;28;20541;-81